sensor_id;sensor_type;location;lat;lon;timestamp;temperature;humidity
75961;SHT30;64644;48.914;2.254;2023-09-12T00:01:59;24.91;60.39
75961;SHT30;64644;48.914;2.254;2023-09-12T00:04:24;24.89;60.64
75961;SHT30;64644;48.914;2.254;2023-09-12T00:06:49;24.87;60.80
75961;SHT30;64644;48.914;2.254;2023-09-12T00:09:15;24.86;60.82
75961;SHT30;64644;48.914;2.254;2023-09-12T00:11:40;24.83;60.77
75961;SHT30;64644;48.914;2.254;2023-09-12T00:14:06;24.79;60.88
75961;SHT30;64644;48.914;2.254;2023-09-12T00:16:33;24.76;60.98
75961;SHT30;64644;48.914;2.254;2023-09-12T00:18:58;24.76;61.05
75961;SHT30;64644;48.914;2.254;2023-09-12T00:21:23;24.69;61.12
75961;SHT30;64644;48.914;2.254;2023-09-12T00:23:49;24.68;61.27
75961;SHT30;64644;48.914;2.254;2023-09-12T00:26:14;24.65;61.28
75961;SHT30;64644;48.914;2.254;2023-09-12T00:28:40;24.63;61.41
75961;SHT30;64644;48.914;2.254;2023-09-12T00:31:05;24.65;61.52
75961;SHT30;64644;48.914;2.254;2023-09-12T00:33:30;24.63;61.68
75961;SHT30;64644;48.914;2.254;2023-09-12T00:35:56;24.59;61.79
75961;SHT30;64644;48.914;2.254;2023-09-12T00:38:21;24.61;61.74
75961;SHT30;64644;48.914;2.254;2023-09-12T00:40:46;24.58;61.88
75961;SHT30;64644;48.914;2.254;2023-09-12T00:43:12;24.55;61.98
75961;SHT30;64644;48.914;2.254;2023-09-12T00:45:38;24.52;62.04
75961;SHT30;64644;48.914;2.254;2023-09-12T00:48:04;24.51;61.98
75961;SHT30;64644;48.914;2.254;2023-09-12T00:50:31;24.47;62.07
75961;SHT30;64644;48.914;2.254;2023-09-12T00:52:57;24.42;62.07
75961;SHT30;64644;48.914;2.254;2023-09-12T00:55:23;24.42;62.07
75961;SHT30;64644;48.914;2.254;2023-09-12T00:57:49;24.37;62.26
75961;SHT30;64644;48.914;2.254;2023-09-12T01:00:15;24.39;62.36
75961;SHT30;64644;48.914;2.254;2023-09-12T01:02:41;24.34;62.41
75961;SHT30;64644;48.914;2.254;2023-09-12T01:05:08;24.32;62.25
75961;SHT30;64644;48.914;2.254;2023-09-12T01:07:35;24.28;62.41
75961;SHT30;64644;48.914;2.254;2023-09-12T01:10:01;24.22;62.46
75961;SHT30;64644;48.914;2.254;2023-09-12T01:12:29;24.24;62.60
75961;SHT30;64644;48.914;2.254;2023-09-12T01:14:54;24.18;62.65
75961;SHT30;64644;48.914;2.254;2023-09-12T01:17:20;24.14;62.84
75961;SHT30;64644;48.914;2.254;2023-09-12T01:19:45;24.17;62.98
75961;SHT30;64644;48.914;2.254;2023-09-12T01:27:52;24.11;63.18
75961;SHT30;64644;48.914;2.254;2023-09-12T01:30:20;24.07;63.35
75961;SHT30;64644;48.914;2.254;2023-09-12T01:32:47;24.03;63.45
75961;SHT30;64644;48.914;2.254;2023-09-12T01:35:13;24.03;63.49
75961;SHT30;64644;48.914;2.254;2023-09-12T01:37:38;24.00;63.55
75961;SHT30;64644;48.914;2.254;2023-09-12T01:40:04;24.00;63.74
75961;SHT30;64644;48.914;2.254;2023-09-12T01:42:36;23.99;63.68
75961;SHT30;64644;48.914;2.254;2023-09-12T01:45:03;23.92;63.75
75961;SHT30;64644;48.914;2.254;2023-09-12T01:47:29;23.93;63.87
75961;SHT30;64644;48.914;2.254;2023-09-12T01:49:56;23.93;63.98
75961;SHT30;64644;48.914;2.254;2023-09-12T01:52:24;23.93;64.02
75961;SHT30;64644;48.914;2.254;2023-09-12T01:54:50;23.92;64.06
75961;SHT30;64644;48.914;2.254;2023-09-12T01:57:17;23.89;64.08
75961;SHT30;64644;48.914;2.254;2023-09-12T01:59:45;23.87;64.27
75961;SHT30;64644;48.914;2.254;2023-09-12T02:02:11;23.87;64.14
75961;SHT30;64644;48.914;2.254;2023-09-12T02:04:36;23.86;64.27
75961;SHT30;64644;48.914;2.254;2023-09-12T02:07:02;23.83;64.32
75961;SHT30;64644;48.914;2.254;2023-09-12T02:09:27;23.79;64.37
75961;SHT30;64644;48.914;2.254;2023-09-12T02:11:53;23.80;64.38
75961;SHT30;64644;48.914;2.254;2023-09-12T02:14:18;23.76;64.53
75961;SHT30;64644;48.914;2.254;2023-09-12T02:16:43;23.76;64.63
75961;SHT30;64644;48.914;2.254;2023-09-12T02:19:09;23.76;64.53
75961;SHT30;64644;48.914;2.254;2023-09-12T02:21:35;23.72;64.61
75961;SHT30;64644;48.914;2.254;2023-09-12T02:24:00;23.67;64.72
75961;SHT30;64644;48.914;2.254;2023-09-12T02:26:26;23.70;64.75
75961;SHT30;64644;48.914;2.254;2023-09-12T02:28:51;23.66;64.77
75961;SHT30;64644;48.914;2.254;2023-09-12T02:31:16;23.66;64.87
75961;SHT30;64644;48.914;2.254;2023-09-12T02:33:42;23.63;64.87
75961;SHT30;64644;48.914;2.254;2023-09-12T02:36:07;23.63;64.90
75961;SHT30;64644;48.914;2.254;2023-09-12T02:38:33;23.67;65.07
75961;SHT30;64644;48.914;2.254;2023-09-12T02:40:58;23.63;65.07
75961;SHT30;64644;48.914;2.254;2023-09-12T02:43:24;23.65;65.06
75961;SHT30;64644;48.914;2.254;2023-09-12T02:45:49;23.67;64.78
75961;SHT30;64644;48.914;2.254;2023-09-12T02:48:14;23.62;64.91
75961;SHT30;64644;48.914;2.254;2023-09-12T02:50:40;23.61;64.98
75961;SHT30;64644;48.914;2.254;2023-09-12T02:53:05;23.61;64.96
75961;SHT30;64644;48.914;2.254;2023-09-12T02:55:31;23.62;65.03
75961;SHT30;64644;48.914;2.254;2023-09-12T02:57:57;23.61;64.96
75961;SHT30;64644;48.914;2.254;2023-09-12T03:00:22;23.62;65.03
75961;SHT30;64644;48.914;2.254;2023-09-12T03:02:47;23.61;65.04
75961;SHT30;64644;48.914;2.254;2023-09-12T03:05:13;23.58;65.02
75961;SHT30;64644;48.914;2.254;2023-09-12T03:07:38;23.56;65.05
75961;SHT30;64644;48.914;2.254;2023-09-12T03:10:04;23.56;65.06
75961;SHT30;64644;48.914;2.254;2023-09-12T03:12:29;23.52;65.07
75961;SHT30;64644;48.914;2.254;2023-09-12T03:14:54;23.52;65.09
75961;SHT30;64644;48.914;2.254;2023-09-12T03:17:21;23.54;65.20
75961;SHT30;64644;48.914;2.254;2023-09-12T03:19:46;23.51;65.14
75961;SHT30;64644;48.914;2.254;2023-09-12T03:22:12;23.47;65.26
75961;SHT30;64644;48.914;2.254;2023-09-12T03:24:37;23.47;65.31
75961;SHT30;64644;48.914;2.254;2023-09-12T03:27:02;23.45;65.27
75961;SHT30;64644;48.914;2.254;2023-09-12T03:29:28;23.45;65.27
75961;SHT30;64644;48.914;2.254;2023-09-12T03:31:53;23.44;65.30
75961;SHT30;64644;48.914;2.254;2023-09-12T03:34:19;23.44;65.31
75961;SHT30;64644;48.914;2.254;2023-09-12T03:36:44;23.41;65.25
75961;SHT30;64644;48.914;2.254;2023-09-12T03:39:09;23.41;65.26
75961;SHT30;64644;48.914;2.254;2023-09-12T03:41:38;23.44;65.24
75961;SHT30;64644;48.914;2.254;2023-09-12T03:44:03;23.39;65.20
75961;SHT30;64644;48.914;2.254;2023-09-12T03:46:29;23.39;65.30
75961;SHT30;64644;48.914;2.254;2023-09-12T03:48:54;23.38;65.28
75961;SHT30;64644;48.914;2.254;2023-09-12T03:51:19;23.38;65.25
75961;SHT30;64644;48.914;2.254;2023-09-12T03:53:45;23.35;65.19
75961;SHT30;64644;48.914;2.254;2023-09-12T03:56:13;23.32;65.23
75961;SHT30;64644;48.914;2.254;2023-09-12T03:58:39;23.28;65.31
75961;SHT30;64644;48.914;2.254;2023-09-12T04:01:04;23.28;65.39
75961;SHT30;64644;48.914;2.254;2023-09-12T04:03:30;23.28;65.39
75961;SHT30;64644;48.914;2.254;2023-09-12T04:05:55;23.25;65.44
75961;SHT30;64644;48.914;2.254;2023-09-12T04:08:20;23.25;65.47
75961;SHT30;64644;48.914;2.254;2023-09-12T04:10:46;23.25;65.57
75961;SHT30;64644;48.914;2.254;2023-09-12T04:13:11;23.27;65.41
75961;SHT30;64644;48.914;2.254;2023-09-12T04:15:37;23.22;65.44
75961;SHT30;64644;48.914;2.254;2023-09-12T04:18:02;23.20;65.42
75961;SHT30;64644;48.914;2.254;2023-09-12T04:20:27;23.17;65.47
75961;SHT30;64644;48.914;2.254;2023-09-12T04:22:53;23.14;65.54
75961;SHT30;64644;48.914;2.254;2023-09-12T04:25:18;23.13;65.71
75961;SHT30;64644;48.914;2.254;2023-09-12T04:27:45;23.14;65.73
75961;SHT30;64644;48.914;2.254;2023-09-12T04:30:11;23.17;65.62
75961;SHT30;64644;48.914;2.254;2023-09-12T04:32:36;23.17;65.64
75961;SHT30;64644;48.914;2.254;2023-09-12T04:35:02;23.14;65.48
75961;SHT30;64644;48.914;2.254;2023-09-12T04:37:28;23.13;65.44
75961;SHT30;64644;48.914;2.254;2023-09-12T04:39:53;23.11;65.59
75961;SHT30;64644;48.914;2.254;2023-09-12T04:42:18;23.06;65.51
75961;SHT30;64644;48.914;2.254;2023-09-12T04:44:44;23.04;65.59
75961;SHT30;64644;48.914;2.254;2023-09-12T04:47:09;23.03;65.68
75961;SHT30;64644;48.914;2.254;2023-09-12T04:49:35;23.04;65.64
75961;SHT30;64644;48.914;2.254;2023-09-12T04:52:00;23.04;65.64
75961;SHT30;64644;48.914;2.254;2023-09-12T04:54:26;23.06;65.67
75961;SHT30;64644;48.914;2.254;2023-09-12T04:56:51;23.06;65.57
75961;SHT30;64644;48.914;2.254;2023-09-12T04:59:16;23.02;65.70
75961;SHT30;64644;48.914;2.254;2023-09-12T05:01:42;23.02;65.69
75961;SHT30;64644;48.914;2.254;2023-09-12T05:04:07;23.00;65.78
75961;SHT30;64644;48.914;2.254;2023-09-12T05:06:35;23.03;65.85
75961;SHT30;64644;48.914;2.254;2023-09-12T05:09:00;23.03;65.83
75961;SHT30;64644;48.914;2.254;2023-09-12T05:11:25;23.04;65.79
75961;SHT30;64644;48.914;2.254;2023-09-12T05:13:51;23.04;65.84
75961;SHT30;64644;48.914;2.254;2023-09-12T05:16:16;23.04;65.86
75961;SHT30;64644;48.914;2.254;2023-09-12T05:18:42;23.03;65.85
75961;SHT30;64644;48.914;2.254;2023-09-12T05:21:07;22.99;65.82
75961;SHT30;64644;48.914;2.254;2023-09-12T05:23:33;22.99;65.85
75961;SHT30;64644;48.914;2.254;2023-09-12T05:25:58;22.96;65.82
75961;SHT30;64644;48.914;2.254;2023-09-12T05:28:23;22.96;65.83
75961;SHT30;64644;48.914;2.254;2023-09-12T05:30:49;22.93;65.83
75961;SHT30;64644;48.914;2.254;2023-09-12T05:33:15;22.92;65.94
75961;SHT30;64644;48.914;2.254;2023-09-12T05:35:41;22.89;65.99
75961;SHT30;64644;48.914;2.254;2023-09-12T05:38:06;22.89;66.05
75961;SHT30;64644;48.914;2.254;2023-09-12T05:40:32;22.94;66.02
75961;SHT30;64644;48.914;2.254;2023-09-12T05:42:57;22.94;66.09
75961;SHT30;64644;48.914;2.254;2023-09-12T05:45:22;22.93;66.13
75961;SHT30;64644;48.914;2.254;2023-09-12T05:47:48;22.92;66.26
75961;SHT30;64644;48.914;2.254;2023-09-12T05:50:15;22.90;66.23
75961;SHT30;64644;48.914;2.254;2023-09-12T05:52:41;22.89;66.43
75961;SHT30;64644;48.914;2.254;2023-09-12T05:55:08;22.93;66.36
75961;SHT30;64644;48.914;2.254;2023-09-12T05:57:33;22.97;66.29
75961;SHT30;64644;48.914;2.254;2023-09-12T05:59:59;22.99;66.28
75961;SHT30;64644;48.914;2.254;2023-09-12T06:02:29;23.03;66.40
75961;SHT30;64644;48.914;2.254;2023-09-12T06:04:55;23.04;66.36
75961;SHT30;64644;48.914;2.254;2023-09-12T06:07:21;23.06;66.55
75961;SHT30;64644;48.914;2.254;2023-09-12T06:09:46;23.10;66.33
75961;SHT30;64644;48.914;2.254;2023-09-12T06:12:12;23.07;66.29
75961;SHT30;64644;48.914;2.254;2023-09-12T06:14:37;23.08;66.31
75961;SHT30;64644;48.914;2.254;2023-09-12T06:17:03;23.13;66.52
75961;SHT30;64644;48.914;2.254;2023-09-12T06:19:28;23.08;66.31
75961;SHT30;64644;48.914;2.254;2023-09-12T06:21:53;23.07;66.42
75961;SHT30;64644;48.914;2.254;2023-09-12T06:24:20;23.08;66.41
75961;SHT30;64644;48.914;2.254;2023-09-12T06:26:46;23.08;66.58
75961;SHT30;64644;48.914;2.254;2023-09-12T06:29:14;23.07;66.56
75961;SHT30;64644;48.914;2.254;2023-09-12T06:31:40;23.08;66.50
75961;SHT30;64644;48.914;2.254;2023-09-12T06:34:08;23.11;66.47
75961;SHT30;64644;48.914;2.254;2023-09-12T06:36:34;23.07;66.25
75961;SHT30;64644;48.914;2.254;2023-09-12T06:39:00;23.06;66.34
75961;SHT30;64644;48.914;2.254;2023-09-12T06:41:27;23.04;66.54
75961;SHT30;64644;48.914;2.254;2023-09-12T06:43:52;23.04;66.43
75961;SHT30;64644;48.914;2.254;2023-09-12T06:46:18;23.06;66.48
75961;SHT30;64644;48.914;2.254;2023-09-12T06:48:46;23.02;66.34
75961;SHT30;64644;48.914;2.254;2023-09-12T06:51:14;23.06;66.42
75961;SHT30;64644;48.914;2.254;2023-09-12T06:53:39;23.10;66.29
75961;SHT30;64644;48.914;2.254;2023-09-12T06:56:05;23.10;66.32
75961;SHT30;64644;48.914;2.254;2023-09-12T06:58:31;23.11;66.19
75961;SHT30;64644;48.914;2.254;2023-09-12T07:01:01;23.10;66.10
75961;SHT30;64644;48.914;2.254;2023-09-12T07:03:28;23.10;66.23
75961;SHT30;64644;48.914;2.254;2023-09-12T07:05:53;23.14;66.22
75961;SHT30;64644;48.914;2.254;2023-09-12T07:08:18;23.13;66.15
75961;SHT30;64644;48.914;2.254;2023-09-12T07:10:45;23.13;66.24
75961;SHT30;64644;48.914;2.254;2023-09-12T07:13:11;23.17;66.03
75961;SHT30;64644;48.914;2.254;2023-09-12T07:15:36;23.13;65.93
75961;SHT30;64644;48.914;2.254;2023-09-12T07:18:02;23.11;65.81
75961;SHT30;64644;48.914;2.254;2023-09-12T07:20:27;23.11;65.94
75961;SHT30;64644;48.914;2.254;2023-09-12T07:22:53;23.10;66.03
75961;SHT30;64644;48.914;2.254;2023-09-12T07:25:18;23.11;66.19
75961;SHT30;64644;48.914;2.254;2023-09-12T07:27:46;23.17;66.23
75961;SHT30;64644;48.914;2.254;2023-09-12T07:30:11;23.21;66.02
75961;SHT30;64644;48.914;2.254;2023-09-12T07:32:36;23.21;65.92
75961;SHT30;64644;48.914;2.254;2023-09-12T07:35:02;23.24;65.99
75961;SHT30;64644;48.914;2.254;2023-09-12T07:37:27;23.25;66.11
75961;SHT30;64644;48.914;2.254;2023-09-12T07:39:53;23.32;66.18
75961;SHT30;64644;48.914;2.254;2023-09-12T07:42:22;23.37;65.82
75961;SHT30;64644;48.914;2.254;2023-09-12T07:44:48;23.41;65.75
75961;SHT30;64644;48.914;2.254;2023-09-12T07:47:13;23.45;65.79
75961;SHT30;64644;48.914;2.254;2023-09-12T07:49:39;23.45;65.71
75961;SHT30;64644;48.914;2.254;2023-09-12T07:52:05;23.48;65.67
75961;SHT30;64644;48.914;2.254;2023-09-12T07:54:31;23.52;65.64
75961;SHT30;64644;48.914;2.254;2023-09-12T07:56:56;23.56;65.66
75961;SHT30;64644;48.914;2.254;2023-09-12T07:59:22;23.59;65.55
75961;SHT30;64644;48.914;2.254;2023-09-12T08:01:47;23.66;65.83
75961;SHT30;64644;48.914;2.254;2023-09-12T08:04:12;23.73;65.75
75961;SHT30;64644;48.914;2.254;2023-09-12T08:06:40;23.77;65.70
75961;SHT30;64644;48.914;2.254;2023-09-12T08:09:06;23.82;65.37
75961;SHT30;64644;48.914;2.254;2023-09-12T08:11:33;23.87;65.39
75961;SHT30;64644;48.914;2.254;2023-09-12T08:13:58;23.90;65.11
75961;SHT30;64644;48.914;2.254;2023-09-12T08:16:23;23.92;65.02
75961;SHT30;64644;48.914;2.254;2023-09-12T08:18:49;23.92;64.88
75961;SHT30;64644;48.914;2.254;2023-09-12T08:21:15;23.93;64.91
75961;SHT30;64644;48.914;2.254;2023-09-12T08:23:40;23.92;64.95
75961;SHT30;64644;48.914;2.254;2023-09-12T08:26:05;23.92;64.88
75961;SHT30;64644;48.914;2.254;2023-09-12T08:28:31;23.92;64.80
75961;SHT30;64644;48.914;2.254;2023-09-12T08:30:56;23.92;64.76
75961;SHT30;64644;48.914;2.254;2023-09-12T08:33:21;23.92;64.94
75961;SHT30;64644;48.914;2.254;2023-09-12T08:35:47;23.90;64.79
75961;SHT30;64644;48.914;2.254;2023-09-12T08:38:12;23.86;64.84
75961;SHT30;64644;48.914;2.254;2023-09-12T08:40:38;23.86;64.89
75961;SHT30;64644;48.914;2.254;2023-09-12T08:43:03;23.83;64.92
75961;SHT30;64644;48.914;2.254;2023-09-12T08:45:29;23.82;64.97
75961;SHT30;64644;48.914;2.254;2023-09-12T08:47:58;23.80;64.97
75961;SHT30;64644;48.914;2.254;2023-09-12T08:50:24;23.82;65.04
75961;SHT30;64644;48.914;2.254;2023-09-12T08:52:50;23.79;65.20
75961;SHT30;64644;48.914;2.254;2023-09-12T08:55:15;23.77;65.53
75961;SHT30;64644;48.914;2.254;2023-09-12T08:57:42;23.75;65.67
75961;SHT30;64644;48.914;2.254;2023-09-12T09:00:08;23.73;65.68
75961;SHT30;64644;48.914;2.254;2023-09-12T09:02:37;23.72;65.71
75961;SHT30;64644;48.914;2.254;2023-09-12T09:05:07;23.69;65.74
75961;SHT30;64644;48.914;2.254;2023-09-12T09:07:38;23.66;65.65
75961;SHT30;64644;48.914;2.254;2023-09-12T09:10:05;23.59;65.67
75961;SHT30;64644;48.914;2.254;2023-09-12T09:12:31;23.55;65.81
75961;SHT30;64644;48.914;2.254;2023-09-12T09:14:57;23.49;65.66
75961;SHT30;64644;48.914;2.254;2023-09-12T09:17:23;23.44;65.44
75961;SHT30;64644;48.914;2.254;2023-09-12T09:19:49;23.38;65.56
75961;SHT30;64644;48.914;2.254;2023-09-12T09:22:14;23.37;65.67
75961;SHT30;64644;48.914;2.254;2023-09-12T09:24:39;23.35;65.98
75961;SHT30;64644;48.914;2.254;2023-09-12T09:27:05;23.34;66.04
75961;SHT30;64644;48.914;2.254;2023-09-12T09:29:30;23.30;66.39
75961;SHT30;64644;48.914;2.254;2023-09-12T09:32:01;23.28;66.59
75961;SHT30;64644;48.914;2.254;2023-09-12T09:34:27;23.24;67.04
75961;SHT30;64644;48.914;2.254;2023-09-12T09:36:55;23.15;67.70
75961;SHT30;64644;48.914;2.254;2023-09-12T09:39:27;23.10;68.19
75961;SHT30;64644;48.914;2.254;2023-09-12T09:41:55;23.06;68.40
75961;SHT30;64644;48.914;2.254;2023-09-12T09:44:22;23.02;68.46
75961;SHT30;64644;48.914;2.254;2023-09-12T09:46:54;22.94;68.81
75961;SHT30;64644;48.914;2.254;2023-09-12T09:49:20;22.87;68.81
75961;SHT30;64644;48.914;2.254;2023-09-12T09:51:47;22.85;69.10
75961;SHT30;64644;48.914;2.254;2023-09-12T09:54:13;22.75;69.02
75961;SHT30;64644;48.914;2.254;2023-09-12T09:56:53;22.73;69.18
75961;SHT30;64644;48.914;2.254;2023-09-12T09:59:24;22.69;68.73
75961;SHT30;64644;48.914;2.254;2023-09-12T10:01:50;22.55;68.85
75961;SHT30;64644;48.914;2.254;2023-09-12T10:04:17;22.34;69.44
75961;SHT30;64644;48.914;2.254;2023-09-12T10:06:45;22.21;70.16
75961;SHT30;64644;48.914;2.254;2023-09-12T10:09:14;21.82;71.14
75961;SHT30;64644;48.914;2.254;2023-09-12T10:11:41;21.55;71.34
75961;SHT30;64644;48.914;2.254;2023-09-12T10:14:07;21.23;74.21
75961;SHT30;64644;48.914;2.254;2023-09-12T10:16:45;20.90;76.60
75961;SHT30;64644;48.914;2.254;2023-09-12T10:19:33;20.80;77.64
75961;SHT30;64644;48.914;2.254;2023-09-12T10:22:19;20.80;77.65
75961;SHT30;64644;48.914;2.254;2023-09-12T10:24:46;20.75;78.56
75961;SHT30;64644;48.914;2.254;2023-09-12T10:27:13;20.76;77.37
75961;SHT30;64644;48.914;2.254;2023-09-12T10:29:39;20.71;76.57
75961;SHT30;64644;48.914;2.254;2023-09-12T10:32:05;20.71;78.52
75961;SHT30;64644;48.914;2.254;2023-09-12T10:34:32;20.76;78.56
75961;SHT30;64644;48.914;2.254;2023-09-12T10:36:58;20.83;77.96
75961;SHT30;64644;48.914;2.254;2023-09-12T10:39:27;20.91;77.67
75961;SHT30;64644;48.914;2.254;2023-09-12T10:41:54;21.03;77.45
75961;SHT30;64644;48.914;2.254;2023-09-12T10:44:20;21.11;77.12
75961;SHT30;64644;48.914;2.254;2023-09-12T10:46:47;21.18;77.00
75961;SHT30;64644;48.914;2.254;2023-09-12T10:49:15;21.27;76.59
75961;SHT30;64644;48.914;2.254;2023-09-12T10:51:45;21.32;76.29
75961;SHT30;64644;48.914;2.254;2023-09-12T10:54:15;21.37;76.32
75961;SHT30;64644;48.914;2.254;2023-09-12T10:56:41;21.39;76.36
75961;SHT30;64644;48.914;2.254;2023-09-12T11:01:34;21.48;75.95
75961;SHT30;64644;48.914;2.254;2023-09-12T11:06:43;21.53;75.75
75961;SHT30;64644;48.914;2.254;2023-09-12T11:11:49;21.59;75.63
75961;SHT30;64644;48.914;2.254;2023-09-12T11:14:19;21.63;75.59
75961;SHT30;64644;48.914;2.254;2023-09-12T11:19:46;21.70;75.60
75961;SHT30;64644;48.914;2.254;2023-09-12T11:22:41;21.76;75.49
75961;SHT30;64644;48.914;2.254;2023-09-12T11:25:27;21.76;75.17
75961;SHT30;64644;48.914;2.254;2023-09-12T11:30:24;21.82;75.34
75961;SHT30;64644;48.914;2.254;2023-09-12T11:33:10;21.86;75.02
75961;SHT30;64644;48.914;2.254;2023-09-12T11:35:38;21.83;75.13
75961;SHT30;64644;48.914;2.254;2023-09-12T11:38:10;21.85;74.89
75961;SHT30;64644;48.914;2.254;2023-09-12T11:43:01;21.85;74.86
75961;SHT30;64644;48.914;2.254;2023-09-12T11:45:27;21.86;75.03
75961;SHT30;64644;48.914;2.254;2023-09-12T11:47:53;21.87;75.01
75961;SHT30;64644;48.914;2.254;2023-09-12T11:50:35;21.89;74.78
75961;SHT30;64644;48.914;2.254;2023-09-12T11:53:08;21.87;74.82
75961;SHT30;64644;48.914;2.254;2023-09-12T11:55:45;21.93;74.94
75961;SHT30;64644;48.914;2.254;2023-09-12T11:58:12;21.94;74.93
75961;SHT30;64644;48.914;2.254;2023-09-12T12:00:47;21.94;75.08
75961;SHT30;64644;48.914;2.254;2023-09-12T12:03:13;22.03;75.10
75961;SHT30;64644;48.914;2.254;2023-09-12T12:05:39;22.04;75.06
75961;SHT30;64644;48.914;2.254;2023-09-12T12:08:07;22.08;75.11
75961;SHT30;64644;48.914;2.254;2023-09-12T12:10:32;22.13;75.05
75961;SHT30;64644;48.914;2.254;2023-09-12T12:12:58;22.15;74.94
75961;SHT30;64644;48.914;2.254;2023-09-12T12:15:23;22.20;74.94
75961;SHT30;64644;48.914;2.254;2023-09-12T12:17:48;22.22;75.14
75961;SHT30;64644;48.914;2.254;2023-09-12T12:20:14;22.30;75.06
75961;SHT30;64644;48.914;2.254;2023-09-12T12:22:40;22.34;75.05
75961;SHT30;64644;48.914;2.254;2023-09-12T12:25:10;22.37;74.92
75961;SHT30;64644;48.914;2.254;2023-09-12T12:27:37;22.41;74.78
75961;SHT30;64644;48.914;2.254;2023-09-12T12:30:05;22.48;74.99
75961;SHT30;64644;48.914;2.254;2023-09-12T12:32:31;22.52;74.89
75961;SHT30;64644;48.914;2.254;2023-09-12T12:34:56;22.58;75.19
75961;SHT30;64644;48.914;2.254;2023-09-12T12:37:28;22.65;75.07
75961;SHT30;64644;48.914;2.254;2023-09-12T12:39:55;22.75;75.03
75961;SHT30;64644;48.914;2.254;2023-09-12T12:42:21;22.82;74.81
75961;SHT30;64644;48.914;2.254;2023-09-12T12:44:52;22.92;74.76
75961;SHT30;64644;48.914;2.254;2023-09-12T12:47:17;23.00;74.48
75961;SHT30;64644;48.914;2.254;2023-09-12T12:49:43;23.04;74.28
75961;SHT30;64644;48.914;2.254;2023-09-12T12:52:11;23.08;74.20
75961;SHT30;64644;48.914;2.254;2023-09-12T12:54:37;23.14;74.27
75961;SHT30;64644;48.914;2.254;2023-09-12T12:57:02;23.17;74.20
75961;SHT30;64644;48.914;2.254;2023-09-12T12:59:28;23.21;74.58
75961;SHT30;64644;48.914;2.254;2023-09-12T13:01:55;23.28;74.15
75961;SHT30;64644;48.914;2.254;2023-09-12T13:04:20;23.32;73.75
75961;SHT30;64644;48.914;2.254;2023-09-12T13:06:46;23.37;73.78
75961;SHT30;64644;48.914;2.254;2023-09-12T13:09:11;23.45;73.89
75961;SHT30;64644;48.914;2.254;2023-09-12T13:11:37;23.48;73.12
75961;SHT30;64644;48.914;2.254;2023-09-12T13:14:04;23.51;73.17
75961;SHT30;64644;48.914;2.254;2023-09-12T13:16:36;23.42;72.54
75961;SHT30;64644;48.914;2.254;2023-09-12T13:19:01;23.35;72.61
75961;SHT30;64644;48.914;2.254;2023-09-12T13:21:27;23.32;73.16
75961;SHT30;64644;48.914;2.254;2023-09-12T13:23:53;23.35;73.30
75961;SHT30;64644;48.914;2.254;2023-09-12T13:26:18;23.38;73.54
75961;SHT30;64644;48.914;2.254;2023-09-12T13:28:44;23.37;73.31
75961;SHT30;64644;48.914;2.254;2023-09-12T13:31:09;23.38;73.48
75961;SHT30;64644;48.914;2.254;2023-09-12T13:33:35;23.32;73.31
75961;SHT30;64644;48.914;2.254;2023-09-12T13:36:00;23.31;73.04
75961;SHT30;64644;48.914;2.254;2023-09-12T13:38:26;23.31;73.01
75961;SHT30;64644;48.914;2.254;2023-09-12T13:40:51;23.34;72.93
75961;SHT30;64644;48.914;2.254;2023-09-12T13:43:16;23.31;73.44
75961;SHT30;64644;48.914;2.254;2023-09-12T13:45:42;23.30;73.40
75961;SHT30;64644;48.914;2.254;2023-09-12T13:48:07;23.30;73.43
75961;SHT30;64644;48.914;2.254;2023-09-12T13:50:33;23.30;73.01
75961;SHT30;64644;48.914;2.254;2023-09-12T13:53:01;23.27;72.60
75961;SHT30;64644;48.914;2.254;2023-09-12T13:55:33;23.20;72.61
75961;SHT30;64644;48.914;2.254;2023-09-12T13:58:05;23.11;73.22
75961;SHT30;64644;48.914;2.254;2023-09-12T14:00:33;23.11;73.13
75961;SHT30;64644;48.914;2.254;2023-09-12T14:02:58;23.08;73.03
75961;SHT30;64644;48.914;2.254;2023-09-12T14:05:24;23.08;73.30
75961;SHT30;64644;48.914;2.254;2023-09-12T14:07:50;23.04;73.01
75961;SHT30;64644;48.914;2.254;2023-09-12T14:10:16;23.00;72.94
75961;SHT30;64644;48.914;2.254;2023-09-12T14:12:41;23.00;72.95
75961;SHT30;64644;48.914;2.254;2023-09-12T14:15:07;23.00;73.08
75961;SHT30;64644;48.914;2.254;2023-09-12T14:17:33;22.99;73.24
75961;SHT30;64644;48.914;2.254;2023-09-12T14:19:58;23.00;73.64
75961;SHT30;64644;48.914;2.254;2023-09-12T14:22:24;22.99;73.91
75961;SHT30;64644;48.914;2.254;2023-09-12T14:24:49;22.93;73.65
75961;SHT30;64644;48.914;2.254;2023-09-12T14:27:14;22.97;73.62
75961;SHT30;64644;48.914;2.254;2023-09-12T14:29:40;22.93;73.57
75961;SHT30;64644;48.914;2.254;2023-09-12T14:32:05;22.96;73.70
75961;SHT30;64644;48.914;2.254;2023-09-12T14:34:30;22.94;73.83
75961;SHT30;64644;48.914;2.254;2023-09-12T14:36:59;22.93;73.56
75961;SHT30;64644;48.914;2.254;2023-09-12T14:39:24;22.94;73.53
75961;SHT30;64644;48.914;2.254;2023-09-12T14:41:51;22.92;73.88
75961;SHT30;64644;48.914;2.254;2023-09-12T14:44:26;22.90;74.00
75961;SHT30;64644;48.914;2.254;2023-09-12T14:46:53;22.87;73.75
75961;SHT30;64644;48.914;2.254;2023-09-12T14:49:18;22.89;74.00
75961;SHT30;64644;48.914;2.254;2023-09-12T14:51:44;22.87;74.27
75961;SHT30;64644;48.914;2.254;2023-09-12T14:54:09;22.86;74.29
75961;SHT30;64644;48.914;2.254;2023-09-12T14:56:35;22.83;74.19
75961;SHT30;64644;48.914;2.254;2023-09-12T15:01:27;22.75;74.18
75961;SHT30;64644;48.914;2.254;2023-09-12T15:03:53;22.73;74.37
75961;SHT30;64644;48.914;2.254;2023-09-12T15:06:19;22.72;74.39
75961;SHT30;64644;48.914;2.254;2023-09-12T15:08:45;22.70;74.54
75961;SHT30;64644;48.914;2.254;2023-09-12T15:11:10;22.70;74.38
75961;SHT30;64644;48.914;2.254;2023-09-12T15:13:36;22.70;74.41
75961;SHT30;64644;48.914;2.254;2023-09-12T15:16:02;22.76;74.35
75961;SHT30;64644;48.914;2.254;2023-09-12T15:18:27;22.73;74.36
75961;SHT30;64644;48.914;2.254;2023-09-12T15:20:53;22.73;74.40
75961;SHT30;64644;48.914;2.254;2023-09-12T15:23:19;22.72;74.73
75961;SHT30;64644;48.914;2.254;2023-09-12T15:25:46;22.73;74.71
75961;SHT30;64644;48.914;2.254;2023-09-12T15:28:11;22.75;74.86
75961;SHT30;64644;48.914;2.254;2023-09-12T15:30:37;22.75;74.81
75961;SHT30;64644;48.914;2.254;2023-09-12T15:33:02;22.73;74.86
75961;SHT30;64644;48.914;2.254;2023-09-12T15:35:28;22.73;74.80
75961;SHT30;64644;48.914;2.254;2023-09-12T15:37:53;22.76;75.01
75961;SHT30;64644;48.914;2.254;2023-09-12T15:40:18;22.77;74.68
75961;SHT30;64644;48.914;2.254;2023-09-12T15:42:44;22.79;74.79
75961;SHT30;64644;48.914;2.254;2023-09-12T15:45:09;22.79;74.77
75961;SHT30;64644;48.914;2.254;2023-09-12T15:47:35;22.80;74.84
75961;SHT30;64644;48.914;2.254;2023-09-12T15:50:01;22.76;74.83